Time;durP1;ratioP1;P1;durP2;ratioP2;P2;SDS_P1;SDS_P2;PMS_P1;PMS_P2;Temp;Humidity;BMP_temperature;BMP_pressure;BME280_temperature;BME280_humidity;BME280_pressure;Samples;Min_cycle;Max_cycle;Signal;HPM_P1;HPM_P2
2022/07/09 00:00:00;;;;;;;14.60;13.07;;;;;;;17.23;78.73;102775.53;5013222;28;20686;-62
2022/07/09 00:02:26;;;;;;;14.70;13.07;;;;;;;17.27;78.79;102779.56;5024749;28;20492;-62
2022/07/09 00:04:51;;;;;;;14.55;13.05;;;;;;;17.05;79.36;102783.03;5013676;28;20018;-62
2022/07/09 00:07:16;;;;;;;13.80;12.43;;;;;;;17.12;79.35;102773.75;5006146;28;20807;-62
2022/07/09 00:09:42;;;;;;;14.68;13.18;;;;;;;17.10;79.41;102783.53;5021140;28;20043;-64
2022/07/09 00:12:07;;;;;;;14.80;13.30;;;;;;;17.10;79.51;102790.56;5007652;28;20087;-63
2022/07/09 00:14:33;;;;;;;15.38;12.82;;;;;;;17.05;79.97;102782.22;5016120;28;20564;-62
2022/07/09 00:16:58;;;;;;;14.55;13.05;;;;;;;16.97;79.76;102781.03;5019045;28;20469;-62
2022/07/09 00:19:24;;;;;;;14.48;12.98;;;;;;;17.10;79.35;102777.44;5020034;28;20017;-62
2022/07/09 00:21:49;;;;;;;14.60;13.10;;;;;;;17.13;79.90;102779.81;5012429;28;20027;-62
2022/07/09 00:24:14;;;;;;;15.52;13.82;;;;;;;17.10;79.43;102782.69;5019118;28;20355;-64
2022/07/09 00:26:40;;;;;;;15.35;13.75;;;;;;;17.03;79.85;102784.09;5020596;28;20450;-62
2022/07/09 00:29:05;;;;;;;15.38;13.77;;;;;;;17.05;80.08;102783.03;5016193;28;20056;-62
2022/07/09 00:31:31;;;;;;;15.32;13.75;;;;;;;17.09;79.99;102788.88;5020505;28;20100;-62
2022/07/09 00:33:56;;;;;;;16.98;13.77;;;;;;;17.04;80.51;102785.78;5016135;28;20033;-63
2022/07/09 00:36:21;;;;;;;15.80;14.07;;;;;;;16.98;80.68;102782.69;5011551;28;20106;-63
2022/07/09 00:38:47;;;;;;;16.02;14.40;;;;;;;17.08;80.10;102772.31;5021780;28;20473;-62
2022/07/09 00:41:12;;;;;;;17.38;15.50;;;;;;;16.81;81.14;102767.44;5011859;28;20065;-63
2022/07/09 00:43:37;;;;;;;15.73;14.10;;;;;;;16.93;80.63;102771.72;5022933;28;20017;-62
2022/07/09 00:46:03;;;;;;;15.85;14.30;;;;;;;16.91;81.01;102773.63;5026219;28;20414;-62
2022/07/09 00:48:28;;;;;;;17.23;15.43;;;;;;;16.89;81.04;102767.66;5022681;28;20054;-62
2022/07/09 00:50:54;;;;;;;16.58;14.98;;;;;;;16.94;80.64;102757.66;5017450;28;20029;-62
2022/07/09 00:53:24;;;;;;;16.23;14.50;;;;;;;16.81;81.46;102762.19;5012856;28;20592;-63
2022/07/09 00:55:51;;;;;;;16.67;14.95;;;;;;;16.84;81.11;102761.94;5019360;28;20022;-66
2022/07/09 00:58:19;;;;;;;16.58;14.88;;;;;;;16.78;81.09;102765.03;5021402;28;20332;-62
2022/07/09 01:00:45;;;;;;;17.48;15.15;;;;;;;16.71;80.95;102764.69;5010721;28;20025;-63
2022/07/09 01:03:10;;;;;;;16.67;14.98;;;;;;;16.76;80.84;102761.72;5021019;28;20389;-64
2022/07/09 01:05:36;;;;;;;16.90;15.20;;;;;;;16.69;81.40;102757.88;5023801;28;20070;-62
2022/07/09 01:08:06;;;;;;;16.20;14.70;;;;;;;16.78;80.92;102753.72;5024961;28;20030;-63
2022/07/09 01:10:33;;;;;;;16.73;15.05;;;;;;;16.79;81.12;102761.47;5022501;28;20025;-63
2022/07/09 01:12:59;;;;;;;16.70;15.10;;;;;;;16.73;81.39;102756.69;5023775;28;20029;-62
2022/07/09 01:15:24;;;;;;;16.77;14.88;;;;;;;16.70;80.90;102746.44;5020975;28;20017;-62
2022/07/09 01:17:52;;;;;;;16.55;14.95;;;;;;;16.66;81.11;102750.22;5025392;28;20048;-62
2022/07/09 01:20:32;;;;;;;15.65;14.05;;;;;;;16.71;81.18;102745.50;5013689;28;20049;-62
2022/07/09 01:22:58;;;;;;;16.10;14.50;;;;;;;16.63;80.66;102742.59;5022777;28;20041;-62
2022/07/09 01:25:45;;;;;;;16.25;14.55;;;;;;;16.65;81.38;102748.56;5011204;28;20108;-63
2022/07/09 01:28:11;;;;;;;15.95;14.35;;;;;;;16.48;81.59;102736.75;5005915;28;20021;-62
2022/07/09 01:30:39;;;;;;;16.20;14.60;;;;;;;16.33;81.83;102736.13;5009205;28;20028;-63
2022/07/09 01:33:04;;;;;;;16.92;15.23;;;;;;;16.43;81.92;102744.97;5018123;28;20036;-62
2022/07/09 01:35:30;;;;;;;15.88;14.27;;;;;;;16.49;81.72;102745.44;5016357;28;20025;-62
2022/07/09 01:37:55;;;;;;;16.63;14.98;;;;;;;16.51;81.50;102740.91;5029506;28;20018;-62
2022/07/09 01:40:22;;;;;;;16.63;15.02;;;;;;;16.38;81.98;102736.63;5026621;28;20370;-62
2022/07/09 01:42:47;;;;;;;16.40;14.80;;;;;;;16.43;82.01;102736.28;5008779;28;20032;-62
2022/07/09 01:45:14;;;;;;;16.38;14.68;;;;;;;16.46;81.64;102729.03;5022531;28;20025;-63
2022/07/09 01:47:39;;;;;;;16.98;15.27;;;;;;;16.38;82.31;102720.91;5012137;28;20039;-61
2022/07/09 01:50:06;;;;;;;17.13;14.98;;;;;;;16.41;81.50;102720.69;5023967;28;20037;-62
2022/07/09 01:52:32;;;;;;;16.63;15.13;;;;;;;16.24;82.50;102722.91;5025551;28;20034;-62
2022/07/09 01:54:57;;;;;;;17.38;15.57;;;;;;;16.10;82.07;102719.53;5019648;28;20037;-63
2022/07/09 01:57:23;;;;;;;16.98;15.27;;;;;;;16.08;82.39;102723.22;5022797;28;20036;-62
2022/07/09 01:59:48;;;;;;;16.88;15.07;;;;;;;16.19;82.11;102720.63;5026726;28;20033;-64
2022/07/09 02:02:13;;;;;;;16.63;15.02;;;;;;;16.11;82.01;102722.97;5024365;28;20017;-65
2022/07/09 02:04:39;;;;;;;17.52;15.82;;;;;;;16.07;82.32;102716.31;5017232;28;20036;-63
2022/07/09 02:07:04;;;;;;;18.00;16.20;;;;;;;16.02;82.23;102721.06;5025633;28;20026;-63
2022/07/09 02:09:30;;;;;;;17.58;15.95;;;;;;;15.91;82.66;102727.09;5025540;28;20465;-63
2022/07/09 02:11:55;;;;;;;17.60;15.90;;;;;;;15.96;82.36;102718.91;5020882;28;20029;-61
2022/07/09 02:14:21;;;;;;;17.27;15.52;;;;;;;15.91;82.44;102700.94;5027465;28;20156;-63
2022/07/09 02:16:47;;;;;;;18.52;16.52;;;;;;;15.99;82.69;102718.66;5027526;28;20369;-62
2022/07/09 02:19:13;;;;;;;18.13;16.45;;;;;;;15.82;83.29;102718.13;5026362;28;20032;-62
2022/07/09 02:21:39;;;;;;;19.13;17.20;;;;;;;15.90;82.79;102721.03;5021070;28;20040;-63
2022/07/09 02:24:04;;;;;;;17.75;16.05;;;;;;;15.86;83.32;102718.75;5014958;28;20032;-63
2022/07/09 02:26:30;;;;;;;19.67;17.17;;;;;;;15.78;83.54;102716.72;5021841;28;20508;-62
2022/07/09 02:28:55;;;;;;;17.95;16.13;;;;;;;15.81;83.38;102713.00;5021617;28;20037;-62
2022/07/09 02:31:21;;;;;;;18.65;16.85;;;;;;;15.80;83.78;102711.34;5023827;28;20033;-63
2022/07/09 02:33:46;;;;;;;18.98;17.05;;;;;;;15.69;83.98;102712.13;5017190;28;20025;-62
2022/07/09 02:36:12;;;;;;;19.17;17.27;;;;;;;15.78;83.67;102701.00;5026821;28;20018;-65
2022/07/09 02:38:37;;;;;;;20.10;18.15;;;;;;;15.79;83.72;102707.06;5021966;28;20060;-62
2022/07/09 02:41:03;;;;;;;20.30;18.33;;;;;;;15.80;84.42;102701.72;5020837;28;20026;-63
2022/07/09 02:43:29;;;;;;;22.38;20.27;;;;;;;15.74;84.56;102696.94;5024362;28;20021;-63
2022/07/09 02:45:55;;;;;;;22.15;19.95;;;;;;;15.85;84.19;102696.16;5021910;28;20022;-63
2022/07/09 02:48:21;;;;;;;22.48;20.38;;;;;;;15.69;84.95;102691.22;5024011;28;20374;-63
2022/07/09 02:50:47;;;;;;;23.35;21.13;;;;;;;15.73;84.84;102695.28;5020521;28;20530;-63
2022/07/09 02:53:12;;;;;;;21.52;19.40;;;;;;;15.69;84.41;102691.22;5014084;28;20033;-65
2022/07/09 02:55:37;;;;;;;22.35;20.15;;;;;;;15.57;84.31;102694.69;5021625;28;20022;-63
2022/07/09 02:58:03;;;;;;;21.75;19.55;;;;;;;15.68;84.02;102699.19;5015697;28;20037;-63
2022/07/09 03:00:28;;;;;;;21.88;19.77;;;;;;;15.62;84.14;102697.81;5011801;28;20031;-61
2022/07/09 03:02:53;;;;;;;22.00;19.92;;;;;;;15.55;84.07;102704.44;5025481;28;20087;-64
2022/07/09 03:05:19;;;;;;;22.20;20.17;;;;;;;15.55;83.89;102707.91;5011106;28;20030;-62
2022/07/09 03:07:44;;;;;;;21.10;19.10;;;;;;;15.56;84.04;102706.09;5015436;28;20025;-64
2022/07/09 03:10:09;;;;;;;22.42;20.23;;;;;;;15.60;83.76;102702.34;5015213;28;20029;-63
2022/07/09 03:12:35;;;;;;;26.23;23.83;;;;;;;15.43;85.90;102694.88;5020043;28;20022;-62
2022/07/09 03:15:00;;;;;;;24.10;21.80;;;;;;;15.52;85.31;102702.03;5024285;28;20088;-63
2022/07/09 03:17:27;;;;;;;24.02;21.75;;;;;;;15.56;85.14;102696.47;5021761;28;20032;-63
2022/07/09 03:19:52;;;;;;;24.42;22.05;;;;;;;15.57;85.18;102702.53;5017824;28;20072;-63
2022/07/09 03:22:17;;;;;;;24.75;22.60;;;;;;;15.58;84.95;102705.03;5008048;28;20061;-64
2022/07/09 03:24:43;;;;;;;25.85;23.33;;;;;;;15.54;85.35;102702.75;5012646;28;20567;-62
2022/07/09 03:27:08;;;;;;;26.60;24.10;;;;;;;15.56;85.75;102700.88;5020711;28;20037;-67
2022/07/09 03:29:33;;;;;;;26.60;24.10;;;;;;;15.62;85.04;102700.44;5020439;28;20293;-62
2022/07/09 03:31:59;;;;;;;26.25;23.75;;;;;;;15.67;85.41;102700.97;5015649;28;20060;-62
2022/07/09 03:34:24;;;;;;;25.40;22.95;;;;;;;15.62;84.93;102695.19;5021902;28;20056;-62
2022/07/09 03:36:49;;;;;;;25.98;23.67;;;;;;;15.55;85.17;102700.03;5015082;28;20064;-62
2022/07/09 03:39:15;;;;;;;25.73;23.45;;;;;;;15.49;85.54;102699.66;5015148;28;20040;-62
2022/07/09 03:41:40;;;;;;;26.42;23.98;;;;;;;15.60;84.73;102691.88;5014235;28;20030;-63
2022/07/09 03:44:05;;;;;;;27.23;24.83;;;;;;;15.60;85.69;102687.47;5021873;28;20022;-63
2022/07/09 03:46:31;;;;;;;27.83;25.23;;;;;;;15.63;85.34;102686.44;5010380;28;20030;-63
2022/07/09 03:48:56;;;;;;;27.77;25.27;;;;;;;15.61;85.91;102698.75;5014439;28;20021;-63
2022/07/09 03:51:22;;;;;;;27.45;24.77;;;;;;;15.69;85.82;102691.22;5020988;28;20052;-64
2022/07/09 03:53:47;;;;;;;29.35;26.63;;;;;;;15.60;86.30;102697.09;5020522;28;20029;-62
2022/07/09 03:56:13;;;;;;;29.85;27.10;;;;;;;15.69;86.59;102693.81;5025871;28;20025;-62
2022/07/09 03:58:38;;;;;;;34.95;31.65;;;;;;;15.60;88.23;102691.88;5011402;28;20040;-62
2022/07/09 04:01:03;;;;;;;33.50;30.17;;;;;;;15.66;88.18;102696.69;5017205;28;20072;-63
2022/07/09 04:03:29;;;;;;;31.75;28.85;;;;;;;15.70;87.76;102695.50;5007655;28;20030;-62
2022/07/09 04:05:54;;;;;;;31.60;28.55;;;;;;;15.66;87.13;102696.69;5025238;28;20033;-64
2022/07/09 04:08:19;;;;;;;34.78;31.48;;;;;;;15.68;87.56;102684.31;5018214;28;20022;-63
2022/07/09 04:10:45;;;;;;;33.15;30.05;;;;;;;15.68;88.22;102693.94;5024018;28;20029;-64
2022/07/09 04:13:11;;;;;;;33.17;29.95;;;;;;;15.69;88.13;102691.22;5025600;28;20026;-62
2022/07/09 04:15:36;;;;;;;32.10;29.10;;;;;;;15.81;87.09;102690.28;5019688;28;20025;-63
2022/07/09 04:18:01;;;;;;;33.63;30.52;;;;;;;15.72;87.89;102688.38;5023967;28;20465;-63
2022/07/09 04:20:27;;;;;;;36.40;32.80;;;;;;;15.80;87.72;102678.16;5025590;28;20438;-63
2022/07/09 04:22:52;;;;;;;36.55;32.97;;;;;;;15.75;88.45;102680.28;5019368;28;20557;-62
2022/07/09 04:25:18;;;;;;;34.58;31.23;;;;;;;15.84;87.84;102686.63;5020949;28;20481;-63
2022/07/09 04:27:43;;;;;;;34.13;30.92;;;;;;;15.82;88.13;102683.28;5008068;28;20028;-62
2022/07/09 04:30:10;;;;;;;34.85;31.63;;;;;;;15.75;88.24;102688.13;5007165;28;20032;-63
2022/07/09 04:32:36;;;;;;;34.42;31.20;;;;;;;15.73;87.99;102684.81;5007706;28;20279;-63
2022/07/09 04:35:01;;;;;;;33.42;30.33;;;;;;;15.81;88.03;102690.28;5026333;28;20033;-63
2022/07/09 04:37:27;;;;;;;35.78;32.40;;;;;;;15.72;88.39;102685.75;5024069;28;20026;-63
2022/07/09 04:39:52;;;;;;;36.05;32.53;;;;;;;15.76;88.69;102687.19;5013419;28;20052;-62
2022/07/09 04:42:19;;;;;;;36.45;33.15;;;;;;;15.84;88.63;102679.63;5026318;28;20036;-63
2022/07/09 04:44:44;;;;;;;35.30;32.08;;;;;;;15.83;88.66;102683.19;5019458;28;20496;-66
2022/07/09 04:47:10;;;;;;;37.17;33.60;;;;;;;15.79;89.05;102681.75;5008166;28;20053;-63
2022/07/09 04:49:35;;;;;;;38.17;34.42;;;;;;;15.90;88.87;102684.41;5012060;28;20026;-64
2022/07/09 04:52:01;;;;;;;36.15;32.85;;;;;;;15.99;88.98;102676.78;5005545;28;20026;-63
2022/07/09 04:54:26;;;;;;;37.25;33.55;;;;;;;16.05;88.82;102671.09;5024241;28;20052;-63
2022/07/09 04:56:51;;;;;;;35.45;32.08;;;;;;;16.09;88.77;102662.06;5020816;28;20450;-64
2022/07/09 04:59:17;;;;;;;37.08;33.50;;;;;;;16.06;88.59;102672.78;5017657;28;20485;-61
2022/07/09 05:01:42;;;;;;;35.55;32.20;;;;;;;16.09;89.22;102672.53;5018993;28;20389;-65
2022/07/09 05:04:08;;;;;;;36.67;33.17;;;;;;;16.13;89.06;102677.44;5018971;28;20112;-62
2022/07/09 05:06:33;;;;;;;35.58;32.03;;;;;;;16.05;88.88;102665.84;5019004;28;20155;-63
2022/07/09 05:08:59;;;;;;;35.53;32.08;;;;;;;16.15;88.45;102661.59;5024401;28;20374;-62
2022/07/09 05:11:25;;;;;;;35.25;32.03;;;;;;;16.24;87.79;102654.84;5026004;28;20491;-62
2022/07/09 05:13:50;;;;;;;34.97;31.35;;;;;;;16.31;87.81;102659.47;5020021;28;20073;-63
2022/07/09 05:16:16;;;;;;;35.65;32.17;;;;;;;16.28;88.54;102651.00;5022038;28;20068;-62
2022/07/09 05:18:41;;;;;;;34.55;31.25;;;;;;;16.25;88.56;102657.34;5009273;28;20033;-62
2022/07/09 05:21:07;;;;;;;34.97;31.52;;;;;;;16.22;87.74;102641.84;5025466;28;20025;-61
2022/07/09 05:23:33;;;;;;;33.45;30.35;;;;;;;16.17;87.79;102623.03;5028826;28;20054;-62
2022/07/09 05:25:58;;;;;;;33.78;30.58;;;;;;;16.38;88.12;102652.81;5026281;28;20044;-62
2022/07/09 05:28:24;;;;;;;33.60;30.33;;;;;;;16.36;87.40;102643.44;5027370;28;20071;-62
2022/07/09 05:30:49;;;;;;;33.97;30.65;;;;;;;16.35;88.59;102647.84;5023035;28;20063;-62
2022/07/09 05:33:14;;;;;;;33.45;30.25;;;;;;;16.40;88.37;102645.69;5017160;28;20032;-61
2022/07/09 05:35:40;;;;;;;33.17;30.02;;;;;;;16.38;88.36;102646.75;5028611;28;20033;-62
2022/07/09 05:38:05;;;;;;;33.22;30.13;;;;;;;16.51;87.84;102638.75;5026679;28;20136;-63
2022/07/09 05:40:31;;;;;;;32.15;29.25;;;;;;;16.53;87.95;102644.72;5020140;28;20492;-62
2022/07/09 05:42:57;;;;;;;33.50;30.20;;;;;;;16.53;87.37;102649.97;5026119;28;20034;-63
2022/07/09 05:45:22;;;;;;;34.05;30.77;;;;;;;16.61;86.63;102644.97;5028097;28;20095;-65
2022/07/09 05:47:48;;;;;;;33.50;30.27;;;;;;;16.67;86.49;102649.72;5028924;28;20470;-63
2022/07/09 05:50:13;;;;;;;33.95;30.58;;;;;;;16.64;86.35;102653.41;5020425;28;20065;-66
2022/07/09 05:52:39;;;;;;;34.38;30.98;;;;;;;16.65;86.88;102655.09;5020249;28;20064;-61
2022/07/09 05:55:04;;;;;;;34.78;31.38;;;;;;;16.69;86.99;102655.69;5023206;28;20030;-61
2022/07/09 05:57:30;;;;;;;36.47;32.95;;;;;;;16.71;87.29;102653.81;5037810;28;20373;-62
2022/07/09 05:59:56;;;;;;;36.03;32.45;;;;;;;16.79;87.43;102661.88;5025711;28;20096;-62
2022/07/09 06:02:21;;;;;;;34.90;31.50;;;;;;;16.79;87.69;102661.88;5021972;28;20104;-69
2022/07/09 06:04:47;;;;;;;35.70;32.30;;;;;;;16.83;87.30;102663.31;5009685;28;20030;-62
2022/07/09 06:07:13;;;;;;;34.13;30.88;;;;;;;16.81;87.18;102660.00;5020304;28;20481;-63
2022/07/09 06:09:38;;;;;;;34.00;30.50;;;;;;;16.95;87.15;102662.34;5019021;28;20033;-62
2022/07/09 06:12:04;;;;;;;32.92;29.73;;;;;;;17.02;86.96;102673.16;5014764;28;20039;-61
2022/07/09 06:14:29;;;;;;;32.33;29.10;;;;;;;17.01;86.90;102666.25;5028079;28;20060;-61
2022/07/09 06:16:55;;;;;;;31.80;28.65;;;;;;;17.03;86.44;102664.34;5023412;28;20010;-61
2022/07/09 06:19:21;;;;;;;30.00;27.00;;;;;;;17.15;86.31;102668.63;5022367;28;20418;-67
2022/07/09 06:21:46;;;;;;;26.23;23.58;;;;;;;17.21;85.23;102672.53;5027565;28;20061;-64
2022/07/09 06:24:11;;;;;;;26.85;24.33;;;;;;;17.24;85.56;102667.03;5025055;28;20446;-65
2022/07/09 06:26:37;;;;;;;29.35;26.50;;;;;;;17.30;85.98;102671.78;5014769;28;20033;-65
2022/07/09 06:29:02;;;;;;;30.00;27.00;;;;;;;17.32;86.63;102663.78;5008722;28;20029;-64
2022/07/09 06:31:27;;;;;;;30.23;27.38;;;;;;;17.36;85.80;102665.22;5022825;28;20110;-62
2022/07/09 06:33:53;;;;;;;29.27;26.27;;;;;;;17.37;85.42;102672.94;5011016;28;20025;-63
2022/07/09 06:36:18;;;;;;;28.75;25.88;;;;;;;17.42;85.77;102676.03;5012968;28;20986;-62
2022/07/09 06:41:28;;;;;;;24.90;22.27;;;;;;;17.43;84.53;102672.47;5011394;28;20484;-63
2022/07/09 06:43:53;;;;;;;24.38;22.08;;;;;;;17.51;84.61;102670.03;5014783;28;20443;-63
2022/07/09 06:46:18;;;;;;;23.90;21.60;;;;;;;17.54;84.84;102663.69;5027535;28;20033;-64
2022/07/09 06:48:44;;;;;;;21.80;19.67;;;;;;;17.74;84.29;102669.97;5008048;28;20113;-63
2022/07/09 06:51:09;;;;;;;22.95;20.55;;;;;;;17.75;84.09;102671.63;5008885;28;20052;-63
2022/07/09 06:53:34;;;;;;;23.08;20.77;;;;;;;17.90;84.24;102664.31;5021178;28;20037;-65
2022/07/09 06:56:00;;;;;;;20.33;18.35;;;;;;;17.81;83.51;102658.00;5024378;28;20025;-63
2022/07/09 06:58:25;;;;;;;22.10;19.05;;;;;;;17.93;83.27;102664.84;5025205;28;20029;-64
2022/07/09 07:00:50;;;;;;;22.25;20.08;;;;;;;17.93;83.55;102659.59;5019860;28;20072;-63
2022/07/09 07:03:16;;;;;;;27.90;25.15;;;;;;;18.08;83.27;102660.13;5021405;28;20027;-63
2022/07/09 07:05:41;;;;;;;26.92;24.33;;;;;;;18.18;83.44;102668.03;5008149;28;20125;-63
2022/07/09 07:08:06;;;;;;;29.45;26.75;;;;;;;18.15;84.15;102673.56;5012064;28;20393;-63
2022/07/09 07:10:32;;;;;;;29.58;26.83;;;;;;;18.11;84.52;102657.22;5024669;28;20057;-64
2022/07/09 07:12:57;;;;;;;27.70;25.10;;;;;;;18.24;84.17;102662.28;5026801;28;20506;-63
2022/07/09 07:15:22;;;;;;;28.73;26.13;;;;;;;18.30;84.69;102662.59;5037995;28;20036;-62
2022/07/09 07:17:48;;;;;;;28.75;26.13;;;;;;;18.31;85.09;102668.69;5019535;28;20464;-62
2022/07/09 07:20:14;;;;;;;27.23;24.65;;;;;;;18.33;83.36;102672.00;5023494;28;20558;-64
2022/07/09 07:22:39;;;;;;;29.65;26.85;;;;;;;18.35;84.22;102674.47;5010127;28;20049;-63
2022/07/09 07:25:05;;;;;;;28.90;26.23;;;;;;;18.33;84.41;102666.75;5013509;28;20038;-64
2022/07/09 07:27:30;;;;;;;27.63;25.20;;;;;;;18.50;82.74;102674.00;5017482;28;20045;-64
2022/07/09 07:29:55;;;;;;;24.10;21.88;;;;;;;18.47;82.84;102674.28;5007782;28;20516;-62
2022/07/09 07:32:21;;;;;;;20.75;18.80;;;;;;;18.53;81.89;102658.00;5013677;28;20029;-63
2022/07/09 07:34:46;;;;;;;21.80;19.70;;;;;;;18.49;81.74;102672.34;5012754;28;20517;-63
2022/07/09 07:37:11;;;;;;;22.77;20.60;;;;;;;18.61;82.46;102664.38;5015157;28;20034;-63
2022/07/09 07:39:37;;;;;;;23.95;21.65;;;;;;;18.73;83.00;102658.06;5015401;28;20017;-64
2022/07/09 07:42:03;;;;;;;21.05;19.20;;;;;;;18.69;81.28;102654.03;5011496;28;20256;-63
2022/07/09 07:44:29;;;;;;;17.90;16.20;;;;;;;18.93;80.29;102664.22;5022584;28;20048;-64
2022/07/09 07:46:54;;;;;;;17.30;15.60;;;;;;;18.92;79.32;102668.63;5012955;28;20467;-64
2022/07/09 07:49:20;;;;;;;16.60;14.68;;;;;;;18.93;79.06;102664.22;5010990;28;20109;-63
2022/07/09 07:51:46;;;;;;;17.83;16.15;;;;;;;19.04;80.00;102658.88;5008970;28;20026;-63
2022/07/09 07:54:11;;;;;;;21.80;19.85;;;;;;;19.21;79.68;102649.44;5012970;28;20053;-62
2022/07/09 07:56:39;;;;;;;20.55;18.55;;;;;;;19.37;79.24;102647.09;5023749;28;20026;-63
2022/07/09 07:59:04;;;;;;;20.42;18.48;;;;;;;19.50;77.93;102642.41;5019269;28;20029;-63
2022/07/09 08:01:30;;;;;;;21.60;19.35;;;;;;;19.57;78.49;102638.25;5017791;28;20463;-63
2022/07/09 08:03:55;;;;;;;18.50;16.80;;;;;;;19.54;77.28;102627.16;5010197;28;20162;-66
2022/07/09 08:06:22;;;;;;;18.48;16.83;;;;;;;19.67;78.50;102632.16;5007909;28;20064;-63
2022/07/09 08:08:47;;;;;;;17.77;16.08;;;;;;;19.73;76.36;102636.88;5020951;28;20025;-63
2022/07/09 08:11:13;;;;;;;16.67;15.07;;;;;;;19.82;75.39;102636.00;5007859;28;20065;-63
2022/07/09 08:13:39;;;;;;;16.98;15.48;;;;;;;19.91;75.84;102634.34;5013021;28;20033;-63
2022/07/09 08:16:05;;;;;;;16.35;14.85;;;;;;;19.95;74.41;102626.00;5015787;28;20065;-63
2022/07/09 08:18:30;;;;;;;15.25;13.73;;;;;;;19.86;73.67;102617.16;5009712;28;20018;-65
2022/07/09 08:20:56;;;;;;;15.32;13.82;;;;;;;19.99;74.28;102627.38;5006248;28;20211;-63
2022/07/09 08:23:22;;;;;;;17.58;15.88;;;;;;;20.16;74.92;102628.44;5017475;28;20045;-63
2022/07/09 08:25:47;;;;;;;18.35;16.75;;;;;;;20.29;74.18;102612.28;5022569;28;20037;-64
2022/07/09 08:28:12;;;;;;;18.75;16.88;;;;;;;20.31;74.03;102620.91;5026602;28;20112;-63
2022/07/09 08:30:38;;;;;;;18.35;16.65;;;;;;;20.39;73.67;102613.09;5024674;28;20405;-64
2022/07/09 08:33:03;;;;;;;18.10;16.30;;;;;;;20.37;73.41;102618.50;5011979;28;20056;-64
2022/07/09 08:35:29;;;;;;;18.50;16.67;;;;;;;20.29;74.73;102607.03;5014755;28;20096;-63
2022/07/09 08:37:54;;;;;;;18.90;17.10;;;;;;;20.19;74.25;102632.59;5010041;28;20663;-63
2022/07/09 08:40:21;;;;;;;19.33;17.52;;;;;;;20.16;74.02;102624.00;5017691;28;20489;-64
2022/07/09 08:42:47;;;;;;;19.20;17.20;;;;;;;20.24;72.95;102625.06;5024097;28;20032;-63
2022/07/09 08:45:16;;;;;;;18.17;16.35;;;;;;;20.29;73.60;102613.13;5025083;28;20123;-64
2022/07/09 08:47:41;;;;;;;;;;;;;;;20.53;74.49;102624.97;5029926;28;20492;-64
2022/07/09 08:50:08;;;;;;;16.67;14.98;;;;;;;20.39;74.94;102618.34;5026203;28;20115;-63
2022/07/09 08:52:35;;;;;;;18.30;16.50;;;;;;;20.35;73.87;102635.41;5010779;28;20026;-64
2022/07/09 08:55:01;;;;;;;17.88;16.25;;;;;;;20.43;74.60;102635.53;5011760;28;20033;-65
2022/07/09 08:57:27;;;;;;;17.42;15.65;;;;;;;20.32;72.75;102633.09;5020750;28;20037;-63
2022/07/09 08:59:52;;;;;;;16.08;14.48;;;;;;;20.33;73.48;102637.38;5010730;28;20036;-64
2022/07/09 09:02:20;;;;;;;16.92;15.25;;;;;;;20.43;72.59;102630.28;5012275;28;20033;-66
2022/07/09 09:04:45;;;;;;;16.13;14.50;;;;;;;20.27;72.69;102635.31;5011226;28;20033;-63
2022/07/09 09:07:18;;;;;;;14.95;13.45;;;;;;;20.15;74.68;102622.34;5020342;28;20624;-63
2022/07/09 09:09:44;;;;;;;15.82;14.23;;;;;;;20.27;73.45;102635.31;5024338;28;20434;-63
2022/07/09 09:12:10;;;;;;;15.32;13.73;;;;;;;20.16;73.43;102634.53;5012519;28;20121;-65
2022/07/09 09:14:36;;;;;;;14.93;13.48;;;;;;;20.04;73.88;102624.31;5014830;28;20466;-64
2022/07/09 09:17:11;;;;;;;17.88;15.85;;;;;;;20.10;74.26;102629.84;5024440;28;20072;-63
2022/07/09 09:19:39;;;;;;;17.30;15.50;;;;;;;20.13;74.10;102618.19;5013512;28;20048;-63
2022/07/09 09:22:05;;;;;;;16.55;14.93;;;;;;;20.24;74.73;102625.06;5011494;28;20060;-62
2022/07/09 09:24:31;;;;;;;18.02;16.42;;;;;;;20.19;72.94;102624.69;5028115;28;20048;-63
2022/07/09 09:26:58;;;;;;;17.13;15.52;;;;;;;20.06;73.83;102617.91;5028497;28;20033;-65
2022/07/09 09:29:24;;;;;;;16.40;14.68;;;;;;;20.31;73.89;102615.63;5012797;28;20091;-63
2022/07/09 09:31:50;;;;;;;18.20;16.30;;;;;;;20.23;73.32;102623.41;5029675;28;20529;-63
2022/07/09 09:34:16;;;;;;;17.00;15.40;;;;;;;20.49;72.73;102618.34;5013897;28;20030;-64
2022/07/09 09:36:47;;;;;;;17.95;16.05;;;;;;;20.45;73.58;102620.41;5020326;28;20021;-63
2022/07/09 09:39:21;;;;;;;16.05;14.45;;;;;;;20.61;73.70;102628.53;5022298;28;20029;-62
2022/07/09 09:41:48;;;;;;;15.85;14.43;;;;;;;20.74;71.74;102622.91;5009444;28;20041;-64
2022/07/09 09:44:17;;;;;;;15.90;14.30;;;;;;;20.78;72.82;102623.44;5021778;28;20022;-62
2022/07/09 09:46:43;;;;;;;;;;;;;;;20.95;72.75;102614.72;5025572;28;20034;-63
2022/07/09 09:49:11;;;;;;;14.77;13.38;;;;;;;20.99;71.64;102616.09;5016082;28;19919;-64
2022/07/09 09:51:47;;;;;;;14.77;13.38;;;;;;;21.06;72.40;102614.50;5020965;28;20037;-63
2022/07/09 09:54:13;;;;;;;16.10;14.43;;;;;;;21.02;72.31;102602.59;5026986;28;20021;-63
2022/07/09 09:56:39;;;;;;;17.33;15.82;;;;;;;20.99;70.55;102609.97;5014121;28;20033;-64
2022/07/09 09:59:05;;;;;;;15.32;13.93;;;;;;;21.05;71.61;102604.94;5017224;28;20413;-67
2022/07/09 10:01:30;;;;;;;15.27;13.77;;;;;;;21.12;70.51;102611.28;5019289;28;20068;-64
2022/07/09 10:03:57;;;;;;;16.52;14.13;;;;;;;21.17;71.03;102611.66;5023502;28;20025;-64
2022/07/09 10:06:23;;;;;;;14.88;13.20;;;;;;;21.14;72.28;102613.75;5018072;28;20363;-63
2022/07/09 10:08:48;;;;;;;13.50;12.13;;;;;;;21.23;70.97;102612.03;5021046;28;20041;-63
2022/07/09 10:11:14;;;;;;;14.60;12.85;;;;;;;21.10;70.87;102607.94;5021996;28;20339;-64
2022/07/09 10:13:50;;;;;;;13.27;12.07;;;;;;;21.27;71.32;102613.34;5014273;28;20367;-63
2022/07/09 10:16:15;;;;;;;13.63;12.23;;;;;;;21.17;70.53;102621.38;5012200;28;20166;-63
2022/07/09 10:18:55;;;;;;;12.93;11.48;;;;;;;21.19;69.04;102622.88;5032793;28;20033;-70
2022/07/09 10:21:36;;;;;;;10.82;8.95;;;;;;;21.27;68.48;102616.81;5009350;28;20050;-64
2022/07/09 10:24:03;;;;;;;8.88;7.72;;;;;;;21.23;67.49;102618.13;5022578;28;20128;-63
2022/07/09 10:26:44;;;;;;;10.18;7.85;;;;;;;21.20;68.18;102600.78;5017280;28;20034;-64
2022/07/09 10:29:27;;;;;;;8.40;6.22;;;;;;;21.48;68.43;102616.53;5013062;28;20550;-63
2022/07/09 10:31:56;;;;;;;8.18;6.40;;;;;;;21.47;68.07;102612.25;5024981;28;20033;-63
2022/07/09 10:34:24;;;;;;;8.57;6.43;;;;;;;21.31;67.15;102615.56;5011487;28;20115;-63
2022/07/09 10:37:00;;;;;;;10.48;6.57;;;;;;;21.27;66.31;102613.34;5010081;28;20018;-65
2022/07/09 10:39:25;;;;;;;8.75;6.47;;;;;;;21.34;66.54;102622.38;5008867;28;20378;-64
2022/07/09 10:42:16;;;;;;;7.65;5.22;;;;;;;21.50;66.99;102609.28;5021484;28;20030;-64
2022/07/09 10:44:42;;;;;;;7.07;4.82;;;;;;;21.59;64.43;102618.94;5018971;28;20064;-66
2022/07/09 10:47:08;;;;;;;6.18;5.18;;;;;;;21.57;65.74;102615.63;5021048;28;20080;-65
2022/07/09 10:49:35;;;;;;;6.15;4.40;;;;;;;21.52;64.16;102623.19;5008906;28;20088;-64
2022/07/09 10:52:01;;;;;;;6.75;4.80;;;;;;;21.47;63.07;102620.16;5022049;28;20397;-65
2022/07/09 10:54:26;;;;;;;6.13;4.40;;;;;;;21.40;64.15;102619.13;5041012;28;20489;-64
2022/07/09 10:56:56;;;;;;;5.35;4.55;;;;;;;21.20;64.69;102619.25;5023761;28;20412;-64
2022/07/09 10:59:22;;;;;;;8.07;4.85;;;;;;;21.24;63.96;102613.69;5008206;28;20025;-65
2022/07/09 11:01:48;;;;;;;7.10;5.32;;;;;;;21.31;64.55;102604.19;5020837;28;20029;-65
2022/07/09 11:04:28;;;;;;;6.25;5.00;;;;;;;21.34;65.38;102625.03;5014231;28;20030;-65
2022/07/09 11:06:53;;;;;;;5.72;3.60;;;;;;;21.09;65.40;102619.47;5023809;28;20053;-64
2022/07/09 11:09:19;;;;;;;4.78;3.60;;;;;;;21.09;63.78;102611.56;5013401;28;20033;-67